Terminal Aerodrome Forecast
Issued by NWS

Home | Current Version | Previous Version | Text Only | Print | Product List | Glossary Off
Versions: 1 2 3 4 5 6 7 8 9 10 11 12 13 14 15 16 17

000
FTUS43 KBIS 311100
TAFJMS
TAF
KJMS 311131Z 3112/0112 13006KT P6SM BKN020
     FM311800 30010KT P6SM BKN040
     FM010600 31009KT P6SM BKN160=

USA.gov is the U.S. government's official web portal to all federal, state and local government web resources and services.